Time;durP1;ratioP1;P1;durP2;ratioP2;P2;SDS_P1;SDS_P2;PMS_P1;PMS_P2;Temp;Humidity;BMP_temperature;BMP_pressure;BME280_temperature;BME280_humidity;BME280_pressure;Samples;Min_cycle;Max_cycle;Signal;HPM_P1;HPM_P2
2023/08/08 00:05:00;;;;;;;5.80;0.88;;;;;;;12.42;79.26;97696.41;10284166;28;20386;-75
2023/08/08 00:10:20;;;;;;;5.13;1.13;;;;;;;12.42;78.94;97693.63;10284172;28;20118;-75
2023/08/08 00:15:41;;;;;;;3.33;1.00;;;;;;;12.26;79.08;97687.78;10297042;28;20039;-75
2023/08/08 00:21:02;;;;;;;2.60;0.88;;;;;;;12.11;79.34;97680.59;10283607;28;20409;-75
2023/08/08 00:26:24;;;;;;;3.05;1.27;;;;;;;11.99;79.69;97675.00;10296718;28;20054;-75
2023/08/08 00:31:45;;;;;;;2.65;1.08;;;;;;;11.84;79.82;97674.75;10296923;28;20042;-75
2023/08/08 00:37:06;;;;;;;3.10;0.90;;;;;;;11.74;80.13;97678.34;10283258;28;20440;-75
2023/08/08 00:42:27;;;;;;;3.22;0.90;;;;;;;11.63;80.52;97667.16;10283101;28;20043;-75
2023/08/08 00:47:47;;;;;;;6.32;1.40;;;;;;;11.58;80.39;97673.81;10268266;28;20053;-75
2023/08/08 00:53:08;;;;;;;3.25;1.00;;;;;;;11.52;80.82;97676.97;10282513;28;20043;-75
2023/08/08 00:58:29;;;;;;;2.60;1.20;;;;;;;11.53;81.48;97678.44;10282943;28;20054;-75
2023/08/08 01:03:52;;;;;;;2.80;1.00;;;;;;;11.68;81.26;97669.59;10282554;28;20038;-75
2023/08/08 01:09:20;;;;;;;5.32;1.10;;;;;;;11.74;81.43;97678.34;10269681;28;20054;-75
2023/08/08 01:14:42;;;;;;;4.63;1.30;;;;;;;11.73;81.26;97662.91;10296385;28;20493;-75
2023/08/08 01:20:05;;;;;;;5.13;1.45;;;;;;;11.58;81.54;97671.00;10283033;28;20097;-75
2023/08/08 01:25:27;;;;;;;3.60;0.90;;;;;;;11.44;81.72;97668.06;10296531;28;20049;-75
2023/08/08 01:30:49;;;;;;;3.22;1.00;;;;;;;11.28;82.39;97670.56;10284888;28;20050;-75
2023/08/08 01:36:20;;;;;;;4.65;1.20;;;;;;;11.15;82.35;97671.88;10274373;28;20050;-76
2023/08/08 01:41:41;;;;;;;2.08;0.88;;;;;;;11.11;82.76;97659.72;10299589;28;20047;-75
2023/08/08 01:47:02;;;;;;;2.65;1.00;;;;;;;11.02;83.08;97650.09;10282666;28;20113;-75
2023/08/08 01:52:25;;;;;;;2.78;1.10;;;;;;;10.98;83.25;97646.28;10283690;28;20046;-75
2023/08/08 01:57:46;;;;;;;9.48;1.05;;;;;;;10.92;83.82;97641.06;10282516;28;20154;-75
2023/08/08 02:03:07;;;;;;;3.42;0.90;;;;;;;10.89;83.79;97642.22;10294871;28;20038;-75
2023/08/08 02:08:29;;;;;;;4.68;1.30;;;;;;;10.89;83.97;97650.59;10281332;28;20051;-75
2023/08/08 02:13:50;;;;;;;3.60;0.82;;;;;;;10.82;83.86;97652.31;10293996;28;20042;-74
2023/08/08 02:19:11;;;;;;;8.85;1.10;;;;;;;10.71;84.36;97649.44;10280390;28;20055;-75
2023/08/08 02:24:33;;;;;;;3.92;1.48;;;;;;;10.69;84.65;97649.31;10280175;28;20054;-75
2023/08/08 02:29:54;;;;;;;2.95;1.10;;;;;;;10.65;84.89;97646.97;10266676;28;20046;-74
2023/08/08 02:35:15;;;;;;;2.17;0.88;;;;;;;10.65;84.64;97646.97;10279343;28;20054;-75
2023/08/08 02:40:38;;;;;;;2.90;1.00;;;;;;;10.70;85.19;97640.31;10292536;28;20053;-75
2023/08/08 02:46:01;;;;;;;;;;;;;;;10.83;85.11;97650.97;10279349;28;20122;-75
2023/08/08 02:51:23;;;;;;;2.20;0.90;;;;;;;10.95;84.34;97631.47;10278732;28;19922;-75
2023/08/08 02:56:44;;;;;;;2.67;0.80;;;;;;;11.03;84.54;97656.41;10292291;28;20050;-75
2023/08/08 03:02:06;;;;;;;3.60;0.85;;;;;;;11.17;84.38;97646.13;10291604;28;20488;-75
2023/08/08 03:07:30;;;;;;;2.22;1.05;;;;;;;11.31;83.96;97646.28;10278501;28;20504;-75
2023/08/08 03:12:51;;;;;;;2.97;1.00;;;;;;;11.47;83.64;97647.28;10285542;28;20504;-77
2023/08/08 03:18:14;;;;;;;3.08;0.88;;;;;;;11.58;83.10;97657.78;10285984;28;20039;-75
2023/08/08 03:23:35;;;;;;;2.25;1.00;;;;;;;11.68;82.73;97657.69;10298902;28;20397;-75
2023/08/08 03:28:56;;;;;;;3.28;1.30;;;;;;;11.79;82.29;97656.25;10284953;28;20066;-74
2023/08/08 03:34:25;;;;;;;3.13;0.70;;;;;;;11.87;82.25;97651.16;10298416;28;20501;-75
2023/08/08 03:39:47;;;;;;;2.95;1.00;;;;;;;11.93;81.80;97655.06;10284738;28;20045;-75
2023/08/08 03:45:09;;;;;;;2.40;0.98;;;;;;;11.98;81.64;97656.78;10271422;28;20065;-75
2023/08/08 03:50:30;;;;;;;4.50;1.00;;;;;;;12.10;81.45;97659.56;10284832;28;20035;-75
2023/08/08 03:55:51;;;;;;;2.28;1.05;;;;;;;12.15;80.97;97658.44;10270986;28;20050;-75
2023/08/08 04:01:12;;;;;;;3.40;0.82;;;;;;;12.18;80.66;97668.44;10270638;28;20070;-75
2023/08/08 04:06:33;;;;;;;3.35;1.30;;;;;;;12.24;80.72;97668.78;10283727;28;20051;-75
2023/08/08 04:11:54;;;;;;;5.05;1.00;;;;;;;12.26;80.10;97657.75;10283570;28;20069;-75
2023/08/08 04:17:14;;;;;;;4.68;1.20;;;;;;;12.22;79.94;97668.69;10283467;28;20039;-75
2023/08/08 04:22:35;;;;;;;3.40;1.17;;;;;;;12.09;79.66;97676.97;10282984;28;20057;-75
2023/08/08 04:27:56;;;;;;;3.83;0.98;;;;;;;12.00;79.67;97681.34;10296833;28;20050;-75
2023/08/08 04:33:17;;;;;;;3.45;1.15;;;;;;;11.98;79.64;97667.22;10282734;28;20485;-75
2023/08/08 04:38:38;;;;;;;2.58;0.70;;;;;;;12.12;79.61;97684.84;10282909;28;20051;-75
2023/08/08 04:43:59;;;;;;;4.22;1.65;;;;;;;12.37;79.25;97692.66;10282111;28;20489;-75
2023/08/08 04:49:20;;;;;;;2.40;0.85;;;;;;;12.53;78.76;97695.66;10282273;28;20050;-75
2023/08/08 04:54:40;;;;;;;3.67;1.05;;;;;;;12.81;78.47;97697.31;10281605;28;20046;-75
2023/08/08 05:00:05;;;;;;;2.97;1.20;;;;;;;13.07;77.54;97695.31;10282000;28;20429;-75
2023/08/08 05:05:26;;;;;;;7.35;1.20;;;;;;;13.30;77.09;97688.19;10294994;28;20595;-75
2023/08/08 05:10:46;;;;;;;3.22;1.00;;;;;;;13.69;76.66;97694.56;10281420;28;20073;-75
2023/08/08 05:16:07;;;;;;;2.67;0.85;;;;;;;13.80;75.33;97683.91;10296025;28;20393;-75
2023/08/08 05:21:28;;;;;;;1.38;0.80;;;;;;;13.87;75.29;97691.28;10294457;28;20043;-75
2023/08/08 05:26:49;;;;;;;2.22;0.95;;;;;;;13.72;74.89;97687.00;10267733;28;20042;-75
2023/08/08 05:32:10;;;;;;;2.25;0.80;;;;;;;13.72;74.84;97679.31;10280055;28;20043;-75
2023/08/08 05:37:31;;;;;;;2.90;1.27;;;;;;;14.65;73.04;97674.31;10273101;28;20043;-74
2023/08/08 05:42:52;;;;;;;2.55;0.90;;;;;;;15.98;69.33;97681.41;10275830;28;20053;-75
2023/08/08 05:48:13;;;;;;;3.40;1.05;;;;;;;16.90;66.57;97669.22;10297799;28;20039;-74
2023/08/08 05:53:33;;;;;;;5.40;1.10;;;;;;;17.19;63.73;97664.75;10281599;28;20062;-75
2023/08/08 05:58:54;;;;;;;2.20;0.90;;;;;;;17.88;62.56;97667.44;10294177;28;20066;-75
2023/08/08 06:04:15;;;;;;;4.20;1.23;;;;;;;17.73;60.81;97671.81;10292591;28;20062;-75
2023/08/08 06:09:37;;;;;;;3.47;1.27;;;;;;;18.16;59.59;97674.16;10292270;28;20082;-75
2023/08/08 06:14:58;;;;;;;2.90;1.08;;;;;;;18.90;57.08;97666.16;10279070;28;20047;-75
2023/08/08 06:20:19;;;;;;;2.67;0.98;;;;;;;20.45;54.57;97682.25;10292108;28;20047;-75
2023/08/08 06:25:40;;;;;;;3.08;0.90;;;;;;;22.88;46.01;97666.59;10278820;28;20067;-75
2023/08/08 06:31:03;;;;;;;2.10;1.13;;;;;;;24.51;41.57;97666.88;10292959;28;20097;-75
2023/08/08 06:36:23;;;;;;;1.92;0.90;;;;;;;28.53;36.43;97683.38;10291944;28;20059;-75
2023/08/08 06:41:45;;;;;;;2.88;0.77;;;;;;;31.52;29.34;97691.13;10291834;28;20567;-75
2023/08/08 06:47:05;;;;;;;2.47;0.80;;;;;;;29.29;28.57;97692.28;10299406;28;20537;-75
2023/08/08 06:52:26;;;;;;;2.53;0.75;;;;;;;29.71;32.45;97696.97;10299413;28;20118;-75
2023/08/08 06:57:47;;;;;;;5.40;0.82;;;;;;;32.91;26.21;97694.97;10299017;28;20043;-75
2023/08/08 07:03:08;;;;;;;2.38;0.75;;;;;;;29.00;28.01;97691.75;10285693;28;20127;-75
2023/08/08 07:08:29;;;;;;;1.90;0.77;;;;;;;25.02;33.30;97693.09;10285672;28;20089;-75
2023/08/08 07:13:50;;;;;;;1.80;0.70;;;;;;;25.36;35.79;97689.13;10299644;28;20159;-74
2023/08/08 07:19:11;;;;;;;3.08;0.70;;;;;;;25.91;34.41;97695.97;10284951;28;20074;-75
2023/08/08 07:24:32;;;;;;;4.57;0.83;;;;;;;23.80;36.62;97694.41;10284863;28;20134;-75
2023/08/08 07:29:53;;;;;;;1.40;0.73;;;;;;;22.81;38.58;97696.28;10284633;28;20481;-75
2023/08/08 07:35:15;;;;;;;2.80;0.80;;;;;;;22.13;39.71;97687.84;10270656;28;20101;-75
2023/08/08 07:40:36;;;;;;;2.13;0.68;;;;;;;22.36;40.07;97695.41;10284494;28;20074;-75
2023/08/08 07:45:56;;;;;;;4.35;0.60;;;;;;;23.08;40.25;97683.28;10284344;28;20038;-74
2023/08/08 07:51:17;;;;;;;2.78;0.77;;;;;;;23.58;39.12;97677.69;10270201;28;20125;-75
2023/08/08 07:56:38;;;;;;;2.25;0.70;;;;;;;24.70;37.54;97682.03;10282805;28;20074;-75
2023/08/08 08:01:59;;;;;;;1.33;0.60;;;;;;;31.00;33.39;97690.47;10296568;28;20512;-75
2023/08/08 08:07:19;;;;;;;1.80;0.52;;;;;;;37.58;20.41;97707.94;10269773;28;20043;-75
2023/08/08 08:12:41;;;;;;;1.10;0.40;;;;;;;39.43;17.56;97681.41;10296254;28;20382;-75
2023/08/08 08:18:02;;;;;;;1.63;0.60;;;;;;;35.56;18.25;97671.78;10269714;28;20493;-75
2023/08/08 08:23:22;;;;;;;1.73;0.40;;;;;;;34.12;22.50;97671.03;10282900;28;20498;-75
2023/08/08 08:28:43;;;;;;;1.30;0.45;;;;;;;34.47;20.02;97667.19;10282321;28;20305;-75
2023/08/08 08:34:04;;;;;;;1.27;0.60;;;;;;;33.10;21.33;97649.72;10295767;28;20497;-75
2023/08/08 08:39:25;;;;;;;1.23;0.40;;;;;;;31.72;24.56;97653.25;10282010;28;20303;-75
2023/08/08 08:44:46;;;;;;;2.72;0.50;;;;;;;36.59;19.36;97655.06;10268309;28;20051;-75
2023/08/08 08:50:07;;;;;;;1.88;0.40;;;;;;;33.07;22.11;97639.69;10267969;28;20046;-75
2023/08/08 08:55:28;;;;;;;0.82;0.38;;;;;;;30.51;21.95;97650.78;10267629;28;20074;-75
2023/08/08 09:00:49;;;;;;;1.00;0.40;;;;;;;27.33;26.04;97647.06;10280970;28;20129;-75
2023/08/08 09:06:10;;;;;;;2.35;0.50;;;;;;;26.01;28.17;97655.28;10279945;28;20097;-75
2023/08/08 09:11:31;;;;;;;2.00;0.50;;;;;;;24.87;31.08;97665.09;10280659;28;20075;-74
2023/08/08 09:16:53;;;;;;;1.67;0.38;;;;;;;26.94;31.90;97648.47;10280251;28;20074;-75
2023/08/08 09:22:14;;;;;;;2.75;0.35;;;;;;;28.20;28.76;97657.66;10280280;28;20074;-75
2023/08/08 09:27:35;;;;;;;1.50;0.40;;;;;;;26.29;29.15;97646.09;10279933;28;20121;-75
2023/08/08 09:33:02;;;;;;;1.10;0.40;;;;;;;26.32;30.49;97655.41;10279746;28;20174;-75
2023/08/08 09:38:23;;;;;;;0.98;0.40;;;;;;;27.86;29.36;97635.53;10292694;28;20437;-75
2023/08/08 09:43:44;;;;;;;2.25;0.40;;;;;;;28.41;28.00;97643.25;10265940;28;20178;-75
2023/08/08 09:49:06;;;;;;;1.17;0.50;;;;;;;26.88;28.10;97646.28;10292821;28;20185;-75
2023/08/08 09:54:26;;;;;;;3.53;0.60;;;;;;;26.47;30.08;97639.75;10279243;28;20401;-75
2023/08/08 09:59:47;;;;;;;2.55;0.50;;;;;;;25.72;29.74;97636.53;10278922;28;20079;-74
2023/08/08 10:05:08;;;;;;;2.20;0.40;;;;;;;31.05;26.20;97637.06;10265104;28;20074;-75
2023/08/08 10:10:29;;;;;;;1.55;0.50;;;;;;;29.10;25.14;97636.38;10265422;28;20066;-75
2023/08/08 10:15:50;;;;;;;3.28;0.40;;;;;;;30.39;24.71;97628.63;10279071;28;20113;-75
2023/08/08 10:21:12;;;;;;;1.20;0.50;;;;;;;28.86;25.18;97631.53;10302871;28;20444;-75
2023/08/08 10:26:33;;;;;;;2.67;0.40;;;;;;;29.24;24.45;97611.13;10305525;28;20135;-75
2023/08/08 10:32:03;;;;;;;2.17;0.50;;;;;;;28.64;24.96;97601.47;10278312;28;20122;-75
2023/08/08 10:37:23;;;;;;;1.63;0.40;;;;;;;28.79;24.28;97611.44;10305238;28;20078;-75
2023/08/08 10:42:45;;;;;;;3.85;0.40;;;;;;;27.18;26.96;97601.94;10291510;28;20114;-75
2023/08/08 10:48:09;;;;;;;1.38;0.40;;;;;;;29.82;24.92;97580.38;10304969;28;20086;-75
2023/08/08 10:53:31;;;;;;;0.85;0.30;;;;;;;29.89;22.69;97573.09;10305011;28;20740;-76
2023/08/08 10:58:52;;;;;;;3.20;0.60;;;;;;;30.01;22.36;97569.34;10291262;28;20078;-76
2023/08/08 11:04:13;;;;;;;2.97;0.40;;;;;;;29.91;22.54;97560.84;10304811;28;20093;-75
2023/08/08 11:09:35;;;;;;;3.38;0.43;;;;;;;28.94;22.42;97557.50;10277698;28;20055;-76
2023/08/08 11:14:56;;;;;;;1.10;0.30;;;;;;;26.64;24.43;97557.53;10290754;28;20066;-76
2023/08/08 11:20:16;;;;;;;3.65;0.30;;;;;;;26.62;24.93;97551.78;10277499;28;20383;-76
2023/08/08 11:25:40;;;;;;;2.65;0.50;;;;;;;26.66;24.88;97534.63;10304396;28;20175;-76
2023/08/08 11:31:00;;;;;;;2.70;0.40;;;;;;;26.73;24.48;97528.19;10286471;28;20468;-76
2023/08/08 11:36:22;;;;;;;0.82;0.32;;;;;;;27.07;24.44;97532.47;10284340;28;20067;-75
2023/08/08 11:41:43;;;;;;;0.93;0.40;;;;;;;27.69;24.08;97527.34;10284464;28;20047;-76
2023/08/08 11:47:05;;;;;;;0.70;0.33;;;;;;;27.76;23.29;97520.84;10284048;28;20370;-76
2023/08/08 11:52:28;;;;;;;5.85;0.32;;;;;;;27.77;22.94;97518.72;10297322;28;20067;-76
2023/08/08 11:57:48;;;;;;;1.10;0.40;;;;;;;27.73;22.34;97510.13;10297062;28;20474;-76
2023/08/08 12:03:11;;;;;;;1.20;0.50;;;;;;;27.13;22.56;97537.50;10283354;28;20050;-75
2023/08/08 12:08:31;;;;;;;1.52;0.40;;;;;;;27.00;22.62;97494.50;10283550;28;20477;-75
2023/08/08 12:13:58;;;;;;;0.93;0.43;;;;;;;26.30;23.49;97478.03;10282688;28;20101;-76
2023/08/08 12:19:22;;;;;;;3.55;0.40;;;;;;;26.35;23.85;97500.22;10282767;28;20058;-76
2023/08/08 12:24:43;;;;;;;1.15;0.50;;;;;;;25.66;24.25;97492.13;10282420;28;20485;-75
2023/08/08 12:30:05;;;;;;;1.33;0.30;;;;;;;25.49;24.83;97487.06;10295803;28;20539;-76
2023/08/08 12:35:27;;;;;;;1.52;0.35;;;;;;;25.36;25.64;97492.72;10295856;28;20047;-76
2023/08/08 12:40:47;;;;;;;1.38;0.40;;;;;;;25.58;25.76;97491.41;10294876;28;20049;-76
2023/08/08 12:46:08;;;;;;;2.67;0.40;;;;;;;25.26;25.93;97486.94;10296249;28;20046;-76
2023/08/08 12:51:29;;;;;;;2.17;0.30;;;;;;;25.24;26.27;97486.94;10281433;28;20394;-75
2023/08/08 12:56:50;;;;;;;1.92;0.40;;;;;;;25.30;26.63;97474.84;10281374;28;20497;-75
2023/08/08 13:02:11;;;;;;;1.25;0.50;;;;;;;25.20;26.15;97471.94;10280920;28;20410;-75
2023/08/08 13:07:32;;;;;;;0.88;0.40;;;;;;;25.53;26.13;97473.50;10294100;28;20070;-75
2023/08/08 13:12:53;;;;;;;1.85;0.50;;;;;;;25.26;25.89;97477.66;10294241;28;20046;-75
2023/08/08 13:18:14;;;;;;;1.52;0.50;;;;;;;24.93;27.02;97468.88;10280262;28;20484;-76
2023/08/08 13:23:36;;;;;;;1.70;0.45;;;;;;;24.96;27.30;97478.19;10293715;28;20050;-76
2023/08/08 13:28:56;;;;;;;1.10;0.30;;;;;;;24.56;27.77;97462.19;10293597;28;20051;-75
2023/08/08 13:34:17;;;;;;;1.48;0.50;;;;;;;24.41;28.31;97458.50;10279957;28;20075;-75
2023/08/08 13:39:37;;;;;;;1.65;0.40;;;;;;;24.72;28.03;97453.06;10279586;28;20126;-76
2023/08/08 13:44:59;;;;;;;2.58;0.40;;;;;;;24.61;27.52;97457.22;10279364;28;20050;-75
2023/08/08 13:50:19;;;;;;;1.10;0.40;;;;;;;24.89;27.24;97451.00;10292623;28;20046;-75
2023/08/08 13:55:41;;;;;;;2.25;0.70;;;;;;;24.92;26.59;97458.19;10278563;28;20074;-76
2023/08/08 14:01:02;;;;;;;1.70;0.63;;;;;;;24.95;26.36;97456.75;10292318;28;20058;-76
2023/08/08 14:06:22;;;;;;;1.63;0.80;;;;;;;24.86;26.27;97455.28;10292191;28;20070;-75
2023/08/08 14:11:43;;;;;;;1.23;0.40;;;;;;;24.08;26.05;97445.34;10292201;28;20122;-75
2023/08/08 14:17:04;;;;;;;3.42;0.60;;;;;;;23.59;26.60;97448.41;10292044;28;20071;-75
2023/08/08 14:22:25;;;;;;;1.65;0.50;;;;;;;23.91;27.11;97453.72;10292196;28;20528;-75
2023/08/08 14:27:45;;;;;;;1.77;0.60;;;;;;;23.73;26.90;97458.50;10278344;28;20067;-75
2023/08/08 14:33:06;;;;;;;1.70;0.70;;;;;;;23.56;27.34;97455.47;10265055;28;20071;-75
2023/08/08 14:38:27;;;;;;;1.33;0.65;;;;;;;23.76;27.62;97460.00;10292717;28;20081;-75
2023/08/08 14:43:48;;;;;;;1.08;0.45;;;;;;;23.83;27.50;97452.94;10291637;28;20094;-75
2023/08/08 14:49:09;;;;;;;1.48;0.50;;;;;;;23.69;27.66;97456.34;10278223;28;20119;-74
2023/08/08 14:54:29;;;;;;;1.33;0.40;;;;;;;23.92;27.59;97468.69;10277650;28;20139;-74
2023/08/08 14:59:51;;;;;;;1.67;0.50;;;;;;;24.00;27.65;97465.94;10291764;28;20051;-74
2023/08/08 15:05:12;;;;;;;1.25;0.40;;;;;;;24.15;27.55;97476.09;10292404;28;20592;-74
2023/08/08 15:10:33;;;;;;;3.08;0.60;;;;;;;23.77;28.16;97481.38;10285305;28;20050;-74
2023/08/08 15:15:55;;;;;;;1.60;0.40;;;;;;;23.42;28.17;97472.38;10299706;28;20082;-74
2023/08/08 15:21:19;;;;;;;2.38;0.60;;;;;;;23.41;28.51;97482.34;10284885;28;20182;-74
2023/08/08 15:26:40;;;;;;;2.08;0.50;;;;;;;23.23;28.76;97479.97;10298387;28;20066;-74
2023/08/08 15:32:00;;;;;;;2.20;0.47;;;;;;;23.23;28.70;97479.25;10297988;28;20066;-74
2023/08/08 15:37:21;;;;;;;2.10;0.55;;;;;;;23.08;29.27;97475.50;10284341;28;20070;-74
2023/08/08 15:42:42;;;;;;;2.30;0.68;;;;;;;22.90;29.08;97493.03;10284137;28;20042;-75
2023/08/08 15:48:03;;;;;;;0.63;0.30;;;;;;;22.72;29.10;97493.44;10297664;28;20491;-74
2023/08/08 15:53:24;;;;;;;1.98;0.50;;;;;;;22.50;28.97;97496.63;10270252;28;20046;-74
2023/08/08 15:58:45;;;;;;;1.25;0.55;;;;;;;22.15;29.62;97503.13;10269866;28;20082;-74
2023/08/08 16:04:06;;;;;;;2.00;0.50;;;;;;;22.03;30.35;97511.41;10297849;28;20401;-74
2023/08/08 16:09:27;;;;;;;1.75;0.50;;;;;;;21.82;30.56;97502.50;10269750;28;20078;-75
2023/08/08 16:14:48;;;;;;;2.78;0.60;;;;;;;21.65;30.87;97506.41;10282924;28;20066;-74
2023/08/08 16:20:09;;;;;;;2.00;0.50;;;;;;;21.52;31.70;97507.53;10282410;28;20199;-74
2023/08/08 16:25:30;;;;;;;1.83;0.45;;;;;;;21.37;32.31;97509.38;10269236;28;20075;-74
2023/08/08 16:30:51;;;;;;;1.88;0.40;;;;;;;21.36;32.39;97510.78;10282093;28;20047;-74
2023/08/08 16:36:14;;;;;;;1.38;0.38;;;;;;;21.11;32.54;97515.16;10282007;28;20114;-74
2023/08/08 16:41:35;;;;;;;1.42;0.32;;;;;;;20.97;33.16;97524.06;10295656;28;20142;-74
2023/08/08 16:46:56;;;;;;;4.18;0.50;;;;;;;20.81;33.29;97509.50;10268468;28;20039;-74
2023/08/08 16:52:16;;;;;;;3.95;0.55;;;;;;;20.69;33.35;97512.78;10294937;28;20074;-74
2023/08/08 16:57:37;;;;;;;2.67;0.50;;;;;;;20.64;33.89;97522.56;10294625;28;20464;-74
2023/08/08 17:02:58;;;;;;;1.73;0.60;;;;;;;20.65;33.92;97524.00;10241063;29;20123;-74
2023/08/08 17:08:19;;;;;;;1.55;0.50;;;;;;;20.59;34.27;97538.06;10241326;29;20050;-74
2023/08/08 17:13:39;;;;;;;1.23;0.50;;;;;;;20.37;34.82;97529.69;10227650;29;20458;-74
2023/08/08 17:19:00;;;;;;;1.95;0.50;;;;;;;20.17;35.07;97524.22;10254223;29;20077;-74
2023/08/08 17:24:21;;;;;;;1.42;0.50;;;;;;;20.04;35.57;97533.75;10253964;29;20075;-74
2023/08/08 17:29:52;;;;;;;0.93;0.40;;;;;;;19.97;35.32;97530.03;10253105;28;20071;-74
2023/08/08 17:35:12;;;;;;;1.35;0.45;;;;;;;19.90;35.52;97541.88;10254317;29;20127;-73
2023/08/08 17:40:33;;;;;;;2.53;0.80;;;;;;;19.75;35.81;97531.53;10253503;29;20118;-73
2023/08/08 17:45:56;;;;;;;2.55;0.70;;;;;;;19.66;36.40;97544.72;10239712;29;20073;-74
2023/08/08 17:51:16;;;;;;;4.75;1.67;;;;;;;19.60;36.34;97545.31;10239757;29;20574;-74
2023/08/08 17:56:37;;;;;;;1.90;0.70;;;;;;;19.49;36.64;97551.28;10252912;29;20122;-74
2023/08/08 18:01:58;;;;;;;4.13;0.60;;;;;;;19.35;36.84;97554.41;10260516;28;20137;-74
2023/08/08 18:07:21;;;;;;;3.13;1.60;;;;;;;19.22;36.64;97549.78;10265802;28;20047;-74
2023/08/08 18:12:42;;;;;;;3.43;1.00;;;;;;;19.13;37.37;97555.19;10279233;28;20050;-74
2023/08/08 18:18:04;;;;;;;2.10;0.90;;;;;;;19.05;37.43;97569.06;10265449;28;20305;-74
2023/08/08 18:23:25;;;;;;;2.10;0.70;;;;;;;18.96;38.13;97563.81;10293372;28;20461;-74
2023/08/08 18:28:46;;;;;;;3.08;0.85;;;;;;;18.86;38.19;97569.88;10292264;28;20096;-74
2023/08/08 18:34:07;;;;;;;2.28;0.60;;;;;;;18.75;38.28;97568.09;10278536;28;20070;-74
2023/08/08 18:39:28;;;;;;;3.97;0.80;;;;;;;18.63;39.23;97573.34;10280360;28;20074;-75
2023/08/08 18:44:48;;;;;;;1.42;0.60;;;;;;;18.53;39.15;97580.09;10286438;28;20105;-75
2023/08/08 18:50:10;;;;;;;1.60;0.63;;;;;;;18.44;39.58;97588.97;10286277;28;20043;-73
2023/08/08 18:55:32;;;;;;;1.58;0.50;;;;;;;18.41;39.87;97593.78;10285895;28;20042;-74
2023/08/08 19:00:52;;;;;;;1.45;0.50;;;;;;;18.43;39.89;97599.53;10300310;28;20082;-74
2023/08/08 19:06:13;;;;;;;4.15;0.77;;;;;;;18.43;40.02;97605.19;10272226;28;20063;-74
2023/08/08 19:11:37;;;;;;;4.45;0.50;;;;;;;18.43;40.39;97605.19;10299238;28;20442;-73
2023/08/08 19:16:58;;;;;;;1.80;0.60;;;;;;;18.41;40.39;97605.09;10285403;28;20078;-74
2023/08/08 19:22:19;;;;;;;1.77;0.60;;;;;;;18.38;40.72;97591.56;10298867;28;20066;-74
2023/08/08 19:27:40;;;;;;;2.08;0.60;;;;;;;18.37;40.85;97596.50;10285079;28;20401;-75
2023/08/08 19:33:01;;;;;;;2.33;0.57;;;;;;;18.35;41.25;97598.53;10271522;28;20047;-74
2023/08/08 19:38:23;;;;;;;1.20;0.60;;;;;;;18.29;41.35;97585.63;10298089;28;20046;-74
2023/08/08 19:43:43;;;;;;;1.70;0.70;;;;;;;18.25;41.27;97590.44;10298034;28;20426;-74
2023/08/08 19:49:04;;;;;;;2.05;0.63;;;;;;;18.21;41.46;97590.28;10284352;28;20445;-74
2023/08/08 19:54:25;;;;;;;3.45;0.63;;;;;;;18.16;41.66;97588.69;10283033;28;20489;-74
2023/08/08 19:59:48;;;;;;;2.08;0.70;;;;;;;18.08;42.33;97585.56;10283561;28;20125;-74
2023/08/08 20:05:10;;;;;;;3.22;0.55;;;;;;;17.97;42.55;97579.56;10283763;28;20049;-75
2023/08/08 20:10:31;;;;;;;1.45;0.50;;;;;;;17.89;42.94;97579.28;10296870;28;20119;-75
2023/08/08 20:15:52;;;;;;;2.35;0.60;;;;;;;17.86;43.29;97586.22;10283166;28;20122;-75
2023/08/08 20:21:13;;;;;;;1.25;0.40;;;;;;;17.83;43.57;97581.88;10296292;28;20066;-75
2023/08/08 20:26:34;;;;;;;2.15;0.60;;;;;;;17.77;43.60;97590.13;10297340;28;20053;-75
2023/08/08 20:31:55;;;;;;;1.73;0.50;;;;;;;17.76;43.83;97577.38;10282323;28;20493;-74
2023/08/08 20:37:18;;;;;;;1.20;0.50;;;;;;;17.75;44.13;97575.91;10295990;28;20067;-74
2023/08/08 20:42:39;;;;;;;1.48;0.50;;;;;;;17.70;44.30;97574.34;10282048;28;20133;-74
2023/08/08 20:48:00;;;;;;;3.28;0.75;;;;;;;17.66;44.42;97572.06;10295407;28;20514;-76
2023/08/08 20:53:21;;;;;;;2.45;0.63;;;;;;;17.63;44.59;97581.81;10281857;28;20454;-74
2023/08/08 20:58:42;;;;;;;1.30;0.50;;;;;;;17.60;44.87;97579.56;10268094;28;20078;-76
2023/08/08 21:04:03;;;;;;;2.35;0.45;;;;;;;17.56;44.90;97587.88;10281147;28;20478;-76
2023/08/08 21:09:24;;;;;;;1.75;0.50;;;;;;;17.51;45.03;97586.28;10280992;28;20122;-76
2023/08/08 21:14:45;;;;;;;5.65;0.75;;;;;;;17.45;45.40;97579.03;10294196;28;20066;-76
2023/08/08 21:20:07;;;;;;;1.73;0.73;;;;;;;17.44;45.55;97580.41;10280407;28;20046;-76
2023/08/08 21:25:28;;;;;;;2.05;0.70;;;;;;;17.35;45.94;97581.47;10280437;28;20114;-74
2023/08/08 21:30:49;;;;;;;1.52;0.65;;;;;;;17.28;45.91;97576.25;10280291;28;20127;-75
2023/08/08 21:36:09;;;;;;;2.03;0.68;;;;;;;17.24;46.21;97587.38;10293314;28;20477;-75
2023/08/08 21:41:30;;;;;;;2.80;0.73;;;;;;;17.24;46.32;97576.81;10293382;28;20062;-75
2023/08/08 21:46:51;;;;;;;2.80;0.77;;;;;;;17.25;46.60;97583.16;10292916;28;20126;-75
2023/08/08 21:52:12;;;;;;;1.52;0.75;;;;;;;17.21;46.64;97580.94;10292942;28;20401;-74
2023/08/08 21:57:33;;;;;;;2.45;0.98;;;;;;;17.20;47.06;97584.41;10293191;28;20066;-74
2023/08/08 22:02:54;;;;;;;1.45;0.52;;;;;;;17.10;47.20;97591.09;10292829;28;20125;-76
2023/08/08 22:08:15;;;;;;;4.22;0.85;;;;;;;17.06;47.94;97588.09;10278986;28;20476;-74
2023/08/08 22:13:35;;;;;;;2.88;0.65;;;;;;;17.01;48.00;97588.59;10265127;28;20126;-75
2023/08/08 22:18:56;;;;;;;2.00;0.60;;;;;;;16.93;48.39;97582.63;10292411;28;20066;-75
2023/08/08 22:24:17;;;;;;;1.80;0.70;;;;;;;16.91;48.56;97571.28;10292164;28;20079;-75
2023/08/08 22:29:38;;;;;;;2.90;0.63;;;;;;;16.90;48.69;97581.81;10293374;28;20126;-75
2023/08/08 22:34:58;;;;;;;3.63;0.43;;;;;;;16.94;48.84;97589.72;10265137;28;20145;-75
2023/08/08 22:40:19;;;;;;;2.33;0.50;;;;;;;16.93;49.03;97588.25;10278667;28;20460;-75
2023/08/08 22:45:40;;;;;;;3.33;0.80;;;;;;;16.92;48.99;97596.00;10278406;28;20070;-75
2023/08/08 22:51:01;;;;;;;2.13;0.65;;;;;;;16.95;49.18;97583.44;10292831;28;20066;-75
2023/08/08 22:56:21;;;;;;;1.88;0.50;;;;;;;16.96;49.24;97584.88;10292826;28;20185;-75
2023/08/08 23:01:42;;;;;;;2.08;0.55;;;;;;;16.91;49.00;97585.38;10279808;28;20493;-76
2023/08/08 23:07:03;;;;;;;1.70;0.50;;;;;;;16.79;49.22;97586.34;10294817;28;20054;-75
2023/08/08 23:12:25;;;;;;;2.72;0.73;;;;;;;16.76;49.28;97581.25;10278392;28;20141;-75
2023/08/08 23:17:45;;;;;;;2.67;0.70;;;;;;;16.69;49.42;97585.91;10278622;28;20143;-75
2023/08/08 23:23:07;;;;;;;3.45;0.50;;;;;;;16.63;49.64;97585.63;10278652;28;20073;-75
2023/08/08 23:28:27;;;;;;;1.60;0.65;;;;;;;16.56;50.04;97579.00;10270016;28;20067;-75
2023/08/08 23:33:48;;;;;;;2.40;0.55;;;;;;;16.55;50.16;97585.28;10285368;28;20071;-75
2023/08/08 23:39:09;;;;;;;2.13;0.63;;;;;;;16.49;50.13;97585.03;10285304;28;20462;-75
2023/08/08 23:44:30;;;;;;;1.63;0.60;;;;;;;16.44;50.47;97586.25;10285631;28;20047;-75
2023/08/08 23:49:51;;;;;;;1.38;0.50;;;;;;;16.47;50.67;97591.31;10298815;28;20066;-75
2023/08/08 23:55:12;;;;;;;2.40;0.70;;;;;;;16.42;50.73;97594.59;10284933;28;20071;-75
